Time;durP1;ratioP1;P1;durP2;ratioP2;P2;SDS_P1;SDS_P2;PMS_P1;PMS_P2;Temp;Humidity;BMP_temperature;BMP_pressure;BME280_temperature;BME280_humidity;BME280_pressure;Samples;Min_cycle;Max_cycle;Signal;HPM_P1;HPM_P2
2021/12/09 00:01:47;;;;;;;;;;;;;;;-1.00;84.66;99942.34;7400453;19;20040;-68
2021/12/09 00:04:23;;;;;;;76.72;34.97;;;;;;;-1.02;84.98;99928.59;7398153;19;19940;-68
2021/12/09 00:06:51;;;;;;;76.43;35.63;;;;;;;-1.03;85.30;99929.44;7397324;19;20078;-68
2021/12/09 00:09:20;;;;;;;77.40;36.80;;;;;;;-1.04;85.08;99919.97;7399051;19;20011;-68
2021/12/09 00:11:50;;;;;;;70.82;34.55;;;;;;;-1.04;85.10;99922.56;7398524;19;20022;-68
2021/12/09 00:14:23;;;;;;;73.93;37.40;;;;;;;-1.06;85.19;99912.25;7397527;19;20022;-68
2021/12/09 00:16:56;;;;;;;73.22;34.92;;;;;;;-1.07;84.64;99917.38;7399256;19;20044;-68
2021/12/09 00:19:25;;;;;;;78.18;36.30;;;;;;;-1.08;85.34;99920.78;7396998;19;20028;-68
2021/12/09 00:21:54;;;;;;;78.07;38.08;;;;;;;-1.08;85.60;99925.94;7398610;19;20022;-68
2021/12/09 00:24:22;;;;;;;69.03;35.05;;;;;;;-1.06;85.46;99939.69;7396802;19;20479;-68
2021/12/09 00:26:50;;;;;;;73.82;36.13;;;;;;;-1.06;85.63;99926.81;7398417;19;20035;-68
2021/12/09 00:29:19;;;;;;;74.88;36.08;;;;;;;-1.05;85.69;99918.25;7397109;19;20014;-68
2021/12/09 00:31:49;;;;;;;71.40;36.10;;;;;;;-1.06;85.70;99913.94;7397979;19;20014;-68
2021/12/09 00:34:28;;;;;;;72.63;35.20;;;;;;;-1.04;85.28;99914.84;7396930;19;20018;-68
2021/12/09 00:37:01;;;;;;;72.22;35.63;;;;;;;-1.03;85.71;99914.00;7398371;19;20040;-68
2021/12/09 00:39:29;;;;;;;73.35;35.08;;;;;;;-1.05;85.42;99907.94;7397404;19;20018;-68
2021/12/09 00:41:58;;;;;;;78.13;39.70;;;;;;;-1.07;85.48;99909.66;7396425;19;20018;-68
2021/12/09 00:44:26;;;;;;;71.40;36.10;;;;;;;-1.07;85.64;99914.81;7396570;19;20031;-68
2021/12/09 00:46:54;;;;;;;79.25;37.28;;;;;;;-1.07;85.55;99912.22;7397712;19;20035;-68
2021/12/09 00:49:29;;;;;;;73.88;36.10;;;;;;;-1.07;85.42;99918.22;7397662;19;20022;-68
2021/12/09 00:51:57;;;;;;;78.15;35.72;;;;;;;-1.09;85.09;99911.34;7396065;19;20022;-68
2021/12/09 00:54:25;;;;;;;72.50;36.75;;;;;;;-1.09;85.26;99916.47;7396332;19;20018;-68
2021/12/09 00:56:53;;;;;;;78.57;35.55;;;;;;;-1.11;85.00;99924.19;7397407;19;20035;-68
2021/12/09 00:59:21;;;;;;;73.00;36.05;;;;;;;-1.11;85.65;99929.34;7396918;19;20496;-68
2021/12/09 01:01:50;;;;;;;69.50;36.00;;;;;;;-1.11;85.48;99936.19;7395126;19;20519;-68
2021/12/09 01:04:18;;;;;;;72.78;35.58;;;;;;;-1.10;85.62;99941.38;7395365;19;20019;-68
2021/12/09 01:06:50;;;;;;;75.68;36.13;;;;;;;-1.09;85.68;99942.22;7397088;19;20014;-68
2021/12/09 01:09:19;;;;;;;67.00;34.90;;;;;;;-1.09;85.26;99943.09;7395771;19;20073;-68
2021/12/09 01:11:47;;;;;;;75.03;37.03;;;;;;;-1.12;85.02;99937.06;7397574;19;20031;-68
2021/12/09 01:14:16;;;;;;;72.43;35.70;;;;;;;-1.11;85.42;99939.66;7394877;19;20023;-67
2021/12/09 01:16:44;;;;;;;73.93;35.85;;;;;;;-1.11;85.22;99933.63;7396690;19;20022;-68
2021/12/09 01:19:12;;;;;;;83.00;37.40;;;;;;;-1.12;85.20;99939.63;7396682;19;20019;-68
2021/12/09 01:21:40;;;;;;;73.40;37.00;;;;;;;-1.12;85.20;99939.63;7396246;19;20382;-67
2021/12/09 01:24:11;;;;;;;72.35;37.28;;;;;;;-1.11;85.34;99943.91;7395585;19;20018;-67
2021/12/09 01:26:39;;;;;;;76.85;35.83;;;;;;;-1.13;85.27;99951.63;7394861;19;20370;-68
2021/12/09 01:29:14;;;;;;;71.10;36.10;;;;;;;-1.13;85.68;99959.34;7396464;19;20083;-68
2021/12/09 01:31:51;;;;;;;70.47;35.67;;;;;;;-1.12;85.67;99967.94;7395904;19;20491;-68
2021/12/09 01:34:21;;;;;;;73.88;35.53;;;;;;;-1.12;84.70;99973.94;7394672;19;20066;-67
2021/12/09 01:36:50;;;;;;;72.03;34.38;;;;;;;-1.14;85.07;99980.78;7396168;19;20019;-68
2021/12/09 01:39:21;;;;;;;74.25;36.90;;;;;;;-1.13;85.29;99984.22;7396007;19;20018;-68
2021/12/09 01:41:56;;;;;;;73.70;35.75;;;;;;;-1.13;85.34;99984.22;7390575;19;20020;-67
2021/12/09 01:44:25;;;;;;;72.57;34.92;;;;;;;-1.13;85.35;99979.09;7394398;19;20022;-67
2021/12/09 01:46:53;;;;;;;73.70;36.80;;;;;;;-1.13;85.33;99968.78;7395810;19;20018;-69
2021/12/09 01:49:21;;;;;;;77.88;36.97;;;;;;;-1.13;85.55;99973.94;7394029;19;20019;-67
2021/12/09 01:51:50;;;;;;;77.72;37.10;;;;;;;-1.15;85.33;99964.47;7395349;19;20571;-68
2021/12/09 01:54:23;;;;;;;74.95;36.58;;;;;;;-1.13;85.27;99967.06;7393799;19;20023;-72
2021/12/09 01:56:51;;;;;;;75.95;36.17;;;;;;;-1.13;85.34;99963.63;7393988;19;20015;-66
2021/12/09 01:59:20;;;;;;;79.93;36.95;;;;;;;-1.13;85.41;99959.34;7395700;19;20019;-66
2021/12/09 02:01:48;;;;;;;78.47;35.92;;;;;;;-1.13;85.63;99958.50;7396519;19;20032;-65
2021/12/09 02:04:16;;;;;;;76.57;36.85;;;;;;;-1.13;85.63;99959.34;7395053;19;20023;-67
2021/12/09 02:06:45;;;;;;;77.65;37.65;;;;;;;-1.12;85.31;99952.50;7393715;19;20019;-65
2021/12/09 02:09:15;;;;;;;79.15;37.25;;;;;;;-1.13;85.12;99956.78;7395289;19;20031;-65
2021/12/09 02:11:46;;;;;;;74.68;35.72;;;;;;;-1.13;85.34;99950.78;7395631;19;20022;-65
2021/12/09 02:14:15;;;;;;;77.22;37.83;;;;;;;-1.13;85.38;99945.63;7395237;19;20022;-65
2021/12/09 02:16:43;;;;;;;72.85;36.05;;;;;;;-1.13;85.63;99956.78;7394596;19;20381;-65
2021/12/09 02:19:14;;;;;;;69.75;37.55;;;;;;;-1.13;85.65;99955.91;7395060;19;20018;-68
2021/12/09 02:21:45;;;;;;;72.15;35.90;;;;;;;-1.12;85.79;99963.66;7395355;19;20042;-64
2021/12/09 02:24:17;;;;;;;79.28;38.80;;;;;;;-1.11;85.42;99959.34;7394075;19;20031;-66
2021/12/09 02:26:49;;;;;;;76.88;35.80;;;;;;;-1.12;85.56;99948.22;7395226;19;20014;-65
2021/12/09 02:29:17;;;;;;;75.78;36.58;;;;;;;-1.13;85.27;99951.63;7394394;19;20375;-66
2021/12/09 02:31:46;;;;;;;80.18;36.90;;;;;;;-1.11;85.31;99956.78;7394670;19;20041;-65
2021/12/09 02:34:15;;;;;;;75.30;37.33;;;;;;;-1.12;85.36;99960.22;7392442;19;20019;-65
2021/12/09 02:36:50;;;;;;;79.45;36.92;;;;;;;-1.12;85.66;99958.50;7394635;19;20096;-65
2021/12/09 02:39:18;;;;;;;;;;;;;;;-1.13;84.59;99959.34;7393758;19;20021;-67
2021/12/09 02:41:47;;;;;;;75.70;35.05;;;;;;;-1.12;85.72;99955.06;7392041;19;19931;-65
2021/12/09 02:44:20;;;;;;;73.60;34.80;;;;;;;-1.14;85.51;99955.03;7392745;19;20479;-64
2021/12/09 02:46:50;;;;;;;74.20;36.03;;;;;;;-1.15;85.70;99959.31;7392788;19;20078;-64
2021/12/09 02:49:21;;;;;;;76.50;36.35;;;;;;;-1.13;85.84;99958.50;7392102;19;20022;-65
2021/12/09 02:51:53;;;;;;;72.55;35.10;;;;;;;-1.13;85.64;99951.63;7394568;19;20031;-64
2021/12/09 02:54:23;;;;;;;74.90;36.67;;;;;;;-1.13;85.52;99953.34;7398996;19;20031;-65
2021/12/09 02:56:54;;;;;;;75.53;37.17;;;;;;;-1.12;85.73;99955.94;7398979;19;20032;-64
2021/12/09 02:59:22;;;;;;;77.00;37.13;;;;;;;-1.13;85.76;99956.78;7401717;19;20015;-65
2021/12/09 03:01:57;;;;;;;83.72;37.72;;;;;;;-1.12;85.78;99955.94;7401299;19;20019;-65
2021/12/09 03:04:27;;;;;;;79.65;37.65;;;;;;;-1.11;85.76;99961.94;7399672;19;20014;-65
2021/12/09 03:06:58;;;;;;;80.18;36.97;;;;;;;-1.11;85.58;99954.22;7401025;19;20010;-66
2021/12/09 03:09:27;;;;;;;76.25;37.88;;;;;;;-1.12;85.82;99945.63;7398981;19;20044;-68
2021/12/09 03:11:58;;;;;;;70.70;34.17;;;;;;;-1.11;85.68;99955.09;7398235;19;20027;-67
2021/12/09 03:14:27;;;;;;;75.53;36.90;;;;;;;-1.11;85.57;99954.22;7398634;19;20022;-68
2021/12/09 03:16:55;;;;;;;79.32;38.40;;;;;;;-1.10;85.79;99950.78;7397736;19;20499;-69
2021/12/09 03:19:23;;;;;;;80.15;37.28;;;;;;;-1.12;85.79;99948.22;7400556;19;20022;-69
2021/12/09 03:21:52;;;;;;;80.07;36.97;;;;;;;-1.11;85.80;99949.06;7401543;19;20022;-68
2021/12/09 03:24:23;;;;;;;80.95;37.70;;;;;;;-1.10;86.07;99946.53;7398780;19;20110;-69
2021/12/09 03:26:55;;;;;;;82.85;36.88;;;;;;;-1.09;85.92;99942.22;7401919;19;20018;-69
2021/12/09 03:29:26;;;;;;;77.97;37.13;;;;;;;-1.10;85.79;99941.38;7401478;19;20022;-68
2021/12/09 03:31:56;;;;;;;76.63;37.58;;;;;;;-1.10;85.84;99945.66;7399123;19;20022;-67
2021/12/09 03:34:28;;;;;;;78.85;36.63;;;;;;;-1.10;85.80;99946.53;7398130;19;20035;-68
2021/12/09 03:36:58;;;;;;;84.38;39.22;;;;;;;-1.09;86.02;99945.66;7400224;19;20011;-67
2021/12/09 03:39:32;;;;;;;76.90;38.72;;;;;;;-1.09;85.46;99937.94;7399797;19;20031;-67
2021/12/09 03:42:01;;;;;;;81.30;37.20;;;;;;;-1.09;85.76;99942.22;7397083;19;20031;-67
2021/12/09 03:44:30;;;;;;;75.78;37.40;;;;;;;-1.09;85.64;99943.09;7398263;19;20028;-67
2021/12/09 03:47:02;;;;;;;74.18;36.38;;;;;;;-1.11;85.67;99944.78;7399754;19;20021;-67
2021/12/09 03:49:31;;;;;;;80.45;37.50;;;;;;;-1.11;85.56;99938.75;7400155;19;20425;-67
2021/12/09 03:51:59;;;;;;;78.20;37.25;;;;;;;-1.13;85.37;99936.19;7399454;19;20014;-67
2021/12/09 03:54:30;;;;;;;86.43;40.08;;;;;;;-1.12;85.73;99929.34;7397722;19;20018;-67
2021/12/09 03:56:59;;;;;;;80.47;37.65;;;;;;;-1.12;85.62;99948.22;7399805;19;20014;-67
2021/12/09 03:59:27;;;;;;;83.05;39.35;;;;;;;-1.13;85.35;99959.34;7399067;19;20031;-67
2021/12/09 04:01:55;;;;;;;81.88;38.08;;;;;;;-1.15;85.52;99946.47;7396817;19;20022;-67
2021/12/09 04:04:25;;;;;;;83.22;40.13;;;;;;;-1.16;85.18;99942.16;7395612;19;20015;-67
2021/12/09 04:06:54;;;;;;;87.05;39.67;;;;;;;-1.17;85.41;99953.28;7399020;19;20022;-69
2021/12/09 04:09:23;;;;;;;87.35;39.42;;;;;;;-1.18;85.75;99959.28;7396400;19;20022;-66
2021/12/09 04:11:56;;;;;;;83.22;38.97;;;;;;;-1.18;85.95;99963.56;7396919;19;20102;-68
2021/12/09 04:14:24;;;;;;;83.25;39.80;;;;;;;-1.17;85.86;99963.59;7396822;19;20035;-67
2021/12/09 04:16:53;;;;;;;81.03;37.60;;;;;;;-1.16;86.08;99973.03;7396619;19;20027;-68
2021/12/09 04:19:22;;;;;;;83.95;38.60;;;;;;;-1.16;85.50;99967.03;7398566;19;20034;-68
2021/12/09 04:21:50;;;;;;;79.25;37.45;;;;;;;-1.16;85.88;99970.47;7398707;19;20022;-68
2021/12/09 04:24:20;;;;;;;80.53;39.10;;;;;;;-1.14;86.10;99975.63;7396439;19;20119;-68
2021/12/09 04:26:52;;;;;;;81.78;37.85;;;;;;;-1.13;86.11;99979.09;7398578;19;20014;-67
2021/12/09 04:29:29;;;;;;;165.85;80.05;;;;;;;-1.12;86.02;99985.97;7398702;19;20082;-68
2021/12/09 04:31:57;;;;;;;84.50;38.10;;;;;;;-1.11;86.19;99983.41;7396641;19;20029;-67
2021/12/09 04:34:25;;;;;;;83.22;40.90;;;;;;;-1.10;86.36;99985.16;7395624;19;20030;-68
2021/12/09 04:36:54;;;;;;;85.85;40.55;;;;;;;-1.09;86.15;99994.56;7397664;19;20015;-67
2021/12/09 04:39:22;;;;;;;90.90;39.72;;;;;;;-1.13;86.43;99991.97;7395601;19;20015;-67
2021/12/09 04:41:50;;;;;;;82.97;37.33;;;;;;;-1.07;86.01;99999.78;7395838;19;20358;-67
2021/12/09 04:44:19;;;;;;;80.22;38.58;;;;;;;-1.06;86.15;99986.03;7395707;19;20092;-67
2021/12/09 04:46:51;;;;;;;84.95;40.45;;;;;;;-1.06;86.16;99968.00;7397590;19;20018;-67
2021/12/09 04:49:19;;;;;;;81.85;37.95;;;;;;;-1.08;85.73;99975.72;7397961;19;20015;-68
2021/12/09 04:51:47;;;;;;;81.10;38.33;;;;;;;-1.09;85.93;99973.13;7397078;19;20378;-67
2021/12/09 04:54:16;;;;;;;82.55;38.30;;;;;;;-1.10;85.84;99986.84;7395844;19;20358;-67
2021/12/09 04:56:44;;;;;;;72.50;36.97;;;;;;;-1.11;86.08;99975.69;7397153;19;20023;-68
2021/12/09 04:59:12;;;;;;;85.25;39.70;;;;;;;-1.08;86.07;99967.13;7396790;19;20018;-68
2021/12/09 05:01:44;;;;;;;80.57;38.78;;;;;;;-1.08;86.10;99974.88;7397005;19;20011;-67
2021/12/09 05:04:15;;;;;;;79.60;37.70;;;;;;;-1.09;86.12;99983.44;7396293;19;20060;-68
2021/12/09 05:06:43;;;;;;;86.40;39.13;;;;;;;-1.09;85.93;99998.88;7396822;19;20504;-67
2021/12/09 05:09:16;;;;;;;81.18;38.15;;;;;;;-1.08;85.98;100005.75;7395204;19;20035;-68
2021/12/09 05:11:50;;;;;;;85.50;39.35;;;;;;;-1.08;86.06;100000.59;7396359;19;20020;-67
2021/12/09 05:14:20;;;;;;;83.93;39.80;;;;;;;-1.08;86.04;99987.72;7395201;19;20547;-67
2021/12/09 05:16:52;;;;;;;78.65;38.17;;;;;;;-1.06;86.30;99988.59;7396276;19;20018;-68
2021/12/09 05:19:24;;;;;;;83.78;38.38;;;;;;;-1.07;86.31;99992.03;7396546;19;20452;-67
2021/12/09 05:21:54;;;;;;;81.13;38.00;;;;;;;-1.06;85.83;99998.91;7396179;19;20374;-68
2021/12/09 05:24:22;;;;;;;86.18;39.65;;;;;;;-1.07;85.97;100000.63;7394448;19;20467;-68
2021/12/09 05:26:53;;;;;;;83.10;36.78;;;;;;;-1.08;85.65;99993.72;7396127;19;20015;-67
2021/12/09 05:29:29;;;;;;;80.53;38.63;;;;;;;-1.09;85.98;99988.56;7396336;19;20026;-67
2021/12/09 05:32:07;;;;;;;82.50;39.08;;;;;;;-1.09;85.79;99997.16;7396277;19;20036;-67
2021/12/09 05:34:41;;;;;;;80.53;37.40;;;;;;;-1.08;85.73;99998.03;7393799;19;20010;-68
2021/12/09 05:37:11;;;;;;;79.53;37.78;;;;;;;-1.10;85.99;99992.88;7395453;19;20044;-67
2021/12/09 05:39:40;;;;;;;83.85;38.25;;;;;;;-1.15;85.79;99991.91;7395001;19;20035;-68
2021/12/09 05:42:10;;;;;;;76.93;37.13;;;;;;;-1.10;86.21;100004.84;7392936;19;20119;-68
2021/12/09 05:44:39;;;;;;;78.97;37.63;;;;;;;-1.10;86.41;99991.97;7393529;19;20040;-69
2021/12/09 05:47:08;;;;;;;78.95;37.33;;;;;;;-1.12;86.53;100009.16;7394040;19;20019;-67
2021/12/09 05:49:42;;;;;;;77.50;36.95;;;;;;;-1.10;86.56;100023.75;7393428;19;20018;-67
2021/12/09 05:52:14;;;;;;;82.03;38.88;;;;;;;-1.11;86.31;100026.28;7393247;19;20475;-67
2021/12/09 05:54:43;;;;;;;83.63;39.35;;;;;;;-1.10;86.59;100010.91;7393748;19;20044;-66
2021/12/09 05:57:11;;;;;;;80.60;37.92;;;;;;;-1.09;86.66;100016.88;7394186;19;20023;-67
2021/12/09 05:59:41;;;;;;;83.47;38.85;;;;;;;-1.10;86.73;100010.91;7392398;19;20031;-67
2021/12/09 06:02:11;;;;;;;84.72;39.67;;;;;;;-1.10;86.69;99997.13;7393487;19;20037;-67
2021/12/09 06:04:42;;;;;;;79.68;38.80;;;;;;;-1.12;86.80;100010.00;7392740;19;20022;-67
2021/12/09 06:07:10;;;;;;;83.72;38.88;;;;;;;-1.13;86.64;100000.53;7393054;19;20018;-67
2021/12/09 06:09:38;;;;;;;80.82;37.65;;;;;;;-1.15;86.82;100005.66;7393044;19;20325;-67
2021/12/09 06:12:08;;;;;;;83.35;38.35;;;;;;;-1.16;86.68;99993.63;7394267;19;20010;-67
2021/12/09 06:14:36;;;;;;;78.15;37.67;;;;;;;-1.19;86.87;99991.03;7392099;19;20483;-67
2021/12/09 06:17:05;;;;;;;84.32;38.90;;;;;;;-1.20;86.98;100001.28;7393651;19;20015;-67
2021/12/09 06:19:33;;;;;;;79.13;38.35;;;;;;;-1.21;87.21;99994.44;7393087;19;20358;-67
2021/12/09 06:22:04;;;;;;;79.07;38.22;;;;;;;-1.21;87.37;99997.84;7391885;19;20056;-67
2021/12/09 06:24:32;;;;;;;74.68;37.05;;;;;;;-1.21;87.18;100003.00;7392579;19;20015;-67
2021/12/09 06:27:03;;;;;;;81.97;37.70;;;;;;;-1.21;87.33;100009.88;7392976;19;20031;-67
2021/12/09 06:29:32;;;;;;;81.35;36.83;;;;;;;-1.21;87.50;100012.44;7401847;19;20023;-67
2021/12/09 06:32:00;;;;;;;82.82;39.30;;;;;;;-1.22;87.57;100011.56;7398338;19;20040;-67
2021/12/09 06:34:29;;;;;;;80.63;38.13;;;;;;;-1.22;87.51;100013.28;7397979;19;20031;-67
2021/12/09 06:36:58;;;;;;;75.97;37.13;;;;;;;-1.21;88.01;100010.72;7398946;19;20040;-68
2021/12/09 06:39:28;;;;;;;82.50;40.00;;;;;;;-1.17;88.02;100004.78;7400869;19;20018;-67
2021/12/09 06:41:58;;;;;;;85.03;38.47;;;;;;;-1.16;87.94;100011.66;7397906;19;20007;-67
2021/12/09 06:44:33;;;;;;;79.95;38.10;;;;;;;-1.16;87.97;100019.38;7399269;19;20032;-68
2021/12/09 06:47:01;;;;;;;77.03;36.53;;;;;;;-1.16;87.79;100023.66;7401569;19;20011;-67
2021/12/09 06:49:29;;;;;;;77.15;37.35;;;;;;;-1.16;87.90;100024.53;7401381;19;20017;-68
2021/12/09 06:51:58;;;;;;;80.63;38.47;;;;;;;-1.16;87.88;100029.69;7400610;19;20028;-67
2021/12/09 06:54:28;;;;;;;79.65;37.40;;;;;;;-1.18;87.81;100027.91;7398138;19;20011;-67
2021/12/09 06:56:57;;;;;;;80.28;39.05;;;;;;;-1.19;88.02;100021.03;7402355;19;20011;-67
2021/12/09 06:59:25;;;;;;;81.68;37.78;;;;;;;-1.19;88.06;100018.47;7401089;19;20032;-67
2021/12/09 07:01:53;;;;;;;81.63;38.08;;;;;;;-1.20;88.16;100015.03;7401735;19;20022;-67
2021/12/09 07:04:21;;;;;;;83.60;37.72;;;;;;;-1.20;88.39;100020.19;7399185;19;20392;-67
2021/12/09 07:06:50;;;;;;;80.72;37.70;;;;;;;-1.21;88.31;100015.88;7401046;19;20486;-67
2021/12/09 07:09:18;;;;;;;81.53;37.72;;;;;;;-1.22;88.14;100011.56;7401459;19;20041;-67
2021/12/09 07:11:51;;;;;;;84.13;39.78;;;;;;;-1.23;88.44;100002.09;7400943;19;20375;-68
2021/12/09 07:14:20;;;;;;;81.53;38.08;;;;;;;-1.25;88.48;100021.84;7399243;19;20014;-67
2021/12/09 07:16:48;;;;;;;83.63;38.47;;;;;;;-1.29;88.47;100027.75;7399967;19;20361;-68
2021/12/09 07:19:16;;;;;;;86.53;40.28;;;;;;;-1.25;88.48;100041.53;7400478;19;20015;-68
2021/12/09 07:21:45;;;;;;;84.43;38.30;;;;;;;-1.24;88.53;100044.16;7400402;19;20022;-67
2021/12/09 07:24:13;;;;;;;83.00;38.17;;;;;;;-1.25;88.62;100045.00;7398106;19;20014;-67
2021/12/09 07:26:41;;;;;;;82.60;37.55;;;;;;;-1.24;88.42;100046.72;7399546;19;20027;-67
2021/12/09 07:29:12;;;;;;;84.57;40.78;;;;;;;-1.24;88.55;100048.41;7397350;19;20027;-68
2021/12/09 07:31:40;;;;;;;90.53;38.95;;;;;;;-1.25;88.60;100068.16;7397103;19;20019;-68
2021/12/09 07:34:08;;;;;;;82.28;38.40;;;;;;;-1.27;88.59;100061.25;7398356;19;20027;-68
2021/12/09 07:36:36;;;;;;;83.53;37.47;;;;;;;-1.26;88.86;100048.41;7397079;19;20027;-68
2021/12/09 07:39:05;;;;;;;81.53;38.45;;;;;;;-1.26;88.66;100055.25;7396459;19;20022;-68
2021/12/09 07:41:33;;;;;;;86.22;38.67;;;;;;;-1.26;89.01;100069.00;7396836;19;20011;-68
2021/12/09 07:44:02;;;;;;;88.93;41.53;;;;;;;-1.27;89.02;100074.97;7398261;19;20014;-67
2021/12/09 07:46:34;;;;;;;88.90;39.80;;;;;;;-1.25;88.84;100069.84;7399326;19;20390;-68
2021/12/09 07:49:02;;;;;;;84.57;38.00;;;;;;;-1.24;88.93;100067.31;7399554;19;20015;-68
2021/12/09 07:51:30;;;;;;;86.80;38.67;;;;;;;-1.24;89.00;100045.84;7399452;19;20023;-67
2021/12/09 07:53:59;;;;;;;75.95;36.40;;;;;;;-1.26;88.68;100053.56;7396837;19;20031;-68
2021/12/09 07:56:27;;;;;;;87.88;40.20;;;;;;;-1.28;89.12;100065.53;7396498;19;20018;-67
2021/12/09 07:58:55;;;;;;;84.68;39.30;;;;;;;-1.30;89.00;100077.53;7396998;19;20026;-68
2021/12/09 08:01:24;;;;;;;94.22;41.15;;;;;;;-1.28;89.03;100080.97;7399116;19;20011;-68
2021/12/09 08:03:54;;;;;;;81.72;35.95;;;;;;;-1.28;89.04;100074.97;7397856;19;20026;-67
2021/12/09 08:06:23;;;;;;;81.00;37.35;;;;;;;-1.28;89.29;100070.66;7396760;19;20018;-67
2021/12/09 08:08:51;;;;;;;86.68;38.03;;;;;;;-1.28;89.31;100074.97;7398583;19;20019;-67
2021/12/09 08:11:19;;;;;;;86.93;40.15;;;;;;;-1.30;89.27;100069.78;7398588;19;20018;-67
2021/12/09 08:13:47;;;;;;;81.45;38.45;;;;;;;-1.28;89.06;100062.09;7397540;19;20018;-68
2021/12/09 08:16:16;;;;;;;89.10;38.28;;;;;;;-1.29;89.43;100052.63;7396098;19;20044;-67
2021/12/09 08:18:56;;;;;;;87.15;42.60;;;;;;;-1.29;89.34;100048.34;7397805;19;20022;-67
2021/12/09 08:21:29;;;;;;;80.90;38.55;;;;;;;-1.30;89.09;100051.78;7398442;19;20036;-68
2021/12/09 08:23:57;;;;;;;89.75;40.85;;;;;;;-1.31;89.23;100045.75;7395692;19;20018;-68
2021/12/09 08:26:25;;;;;;;86.57;40.72;;;;;;;-1.29;89.29;100048.34;7396278;19;20088;-67
2021/12/09 08:28:54;;;;;;;88.53;40.50;;;;;;;-1.27;89.50;100068.97;7397839;19;20037;-68
2021/12/09 08:31:22;;;;;;;90.72;41.03;;;;;;;-1.26;89.67;100088.69;7397889;19;20032;-68
2021/12/09 08:33:50;;;;;;;90.55;40.22;;;;;;;-1.25;89.41;100091.31;7397297;19;20028;-68
2021/12/09 08:36:18;;;;;;;82.65;39.15;;;;;;;-1.26;89.57;100078.41;7395304;19;20377;-68
2021/12/09 08:38:49;;;;;;;84.43;37.10;;;;;;;-1.24;89.43;100059.59;7397541;19;20015;-69
2021/12/09 08:41:18;;;;;;;88.72;39.13;;;;;;;-1.23;89.69;100066.47;7395802;19;20010;-68
2021/12/09 08:43:46;;;;;;;82.20;39.08;;;;;;;-1.23;89.56;100074.19;7397060;19;20018;-66
2021/12/09 08:46:17;;;;;;;90.18;38.83;;;;;;;-1.23;89.52;100068.19;7397447;19;20353;-68
2021/12/09 08:48:46;;;;;;;95.28;43.17;;;;;;;-1.22;89.80;100070.75;7397236;19;20374;-68
2021/12/09 08:51:15;;;;;;;87.32;41.92;;;;;;;-1.21;89.63;100054.47;7396457;19;20018;-67
2021/12/09 08:53:44;;;;;;;84.72;39.10;;;;;;;-1.18;89.79;100062.25;7395332;19;20022;-68
2021/12/09 08:56:14;;;;;;;96.38;40.85;;;;;;;-1.16;89.67;100078.59;7395931;19;20022;-68
2021/12/09 08:58:43;;;;;;;103.43;51.10;;;;;;;-1.15;89.86;100070.03;7397394;19;20014;-68
2021/12/09 09:01:12;;;;;;;85.72;40.60;;;;;;;-1.11;89.76;100046.88;7397021;19;20018;-68
2021/12/09 09:03:40;;;;;;;87.15;39.35;;;;;;;-1.10;89.56;100064.06;7396030;19;20026;-69
2021/12/09 09:06:08;;;;;;;94.25;41.35;;;;;;;-1.09;89.61;100070.97;7394679;19;20022;-68
2021/12/09 09:08:37;;;;;;;84.63;40.22;;;;;;;-1.06;89.76;100089.00;7396815;19;20031;-68
2021/12/09 09:11:05;;;;;;;87.50;40.42;;;;;;;-1.04;89.75;100066.75;7394779;19;20025;-68
2021/12/09 09:13:36;;;;;;;89.68;39.63;;;;;;;-1.00;89.92;100063.34;7395652;19;20103;-68
2021/12/09 09:16:04;;;;;;;97.03;44.50;;;;;;;-0.97;89.59;100073.72;7396024;19;20018;-68
2021/12/09 09:18:33;;;;;;;84.80;41.22;;;;;;;-0.95;89.64;100078.88;7396398;19;20015;-68
2021/12/09 09:21:01;;;;;;;88.18;42.45;;;;;;;-0.95;89.75;100072.00;7395658;19;20337;-68
2021/12/09 09:23:29;;;;;;;88.25;40.53;;;;;;;-0.91;89.91;100050.63;7395674;19;20018;-68
2021/12/09 09:25:57;;;;;;;83.60;39.25;;;;;;;-0.90;89.61;100054.91;7394565;19;20028;-68
2021/12/09 09:28:26;;;;;;;83.15;39.38;;;;;;;-0.90;89.50;100056.63;7395640;19;20031;-68
2021/12/09 09:31:20;;;;;;;78.85;37.40;;;;;;;-0.90;89.65;100056.63;7395602;19;20015;-68
2021/12/09 09:33:49;;;;;;;78.60;38.28;;;;;;;-0.90;89.40;100065.22;7394565;19;20483;-67
2021/12/09 09:36:17;;;;;;;82.53;38.72;;;;;;;-0.90;89.71;100056.63;7394060;19;20018;-66
2021/12/09 09:38:45;;;;;;;85.97;39.00;;;;;;;-0.89;89.47;100059.22;7395689;19;20035;-66
2021/12/09 09:41:20;;;;;;;88.40;41.45;;;;;;;-0.90;89.71;100062.63;7394594;19;20374;-67
2021/12/09 09:44:09;;;;;;;85.18;43.25;;;;;;;-0.87;89.75;100057.56;7394545;19;20019;-67
2021/12/09 09:46:40;;;;;;;86.00;39.40;;;;;;;-0.84;89.66;100055.00;7396374;19;20351;-66
2021/12/09 09:49:09;;;;;;;80.15;38.17;;;;;;;-0.81;89.54;100056.75;7393746;19;20386;-68
2021/12/09 09:51:38;;;;;;;82.25;39.78;;;;;;;-0.82;89.69;100057.63;7393802;19;20014;-67
2021/12/09 09:54:08;;;;;;;85.60;40.42;;;;;;;-0.79;89.55;100059.38;7394294;19;20047;-67
2021/12/09 09:56:41;;;;;;;85.35;40.88;;;;;;;-0.77;89.72;100052.50;7393382;19;20387;-68
2021/12/09 09:59:12;;;;;;;78.57;39.65;;;;;;;-0.75;89.73;100067.13;7395256;19;20014;-67
2021/12/09 10:01:43;;;;;;;79.43;38.67;;;;;;;-0.73;89.48;100074.91;7394358;19;20027;-67
2021/12/09 10:04:13;;;;;;;93.00;44.67;;;;;;;-0.73;89.46;100070.63;7393072;19;20014;-67
2021/12/09 10:06:44;;;;;;;88.80;41.53;;;;;;;-0.71;89.79;100058.63;7395210;19;20011;-68
2021/12/09 10:09:15;;;;;;;84.35;40.25;;;;;;;-0.67;89.55;100059.50;7395243;19;20024;-66
2021/12/09 10:11:43;;;;;;;87.57;42.13;;;;;;;-0.67;89.22;100060.41;7393295;19;20014;-69
2021/12/09 10:14:15;;;;;;;93.07;44.50;;;;;;;-0.67;89.49;100062.09;7392326;19;20405;-68
2021/12/09 10:16:47;;;;;;;97.00;44.83;;;;;;;-0.66;89.49;100067.28;7393250;19;20036;-68
2021/12/09 10:19:18;;;;;;;85.05;41.33;;;;;;;-0.63;89.52;100065.56;7392981;19;20019;-67
2021/12/09 10:21:47;;;;;;;83.13;40.65;;;;;;;-0.61;89.63;100074.19;7392568;19;20092;-68
2021/12/09 10:24:16;;;;;;;86.13;41.28;;;;;;;-0.60;89.20;100076.78;7392133;19;20014;-68
2021/12/09 10:26:45;;;;;;;81.63;38.20;;;;;;;-0.60;88.85;100076.78;7394342;19;20014;-67
2021/12/09 10:29:20;;;;;;;86.00;40.33;;;;;;;-0.61;88.85;100085.34;7394303;19;20050;-67
2021/12/09 10:31:56;;;;;;;87.20;41.80;;;;;;;-0.62;89.23;100078.50;7393631;19;20506;-69
2021/12/09 10:34:35;;;;;;;83.15;40.20;;;;;;;-0.62;89.25;100077.63;7392482;19;20498;-67
2021/12/09 10:37:10;;;;;;;84.13;41.40;;;;;;;-0.60;89.37;100087.09;7392552;19;20018;-67
2021/12/09 10:39:39;;;;;;;;;;;;;;;-0.59;89.14;100078.53;7394756;19;20043;-67
2021/12/09 10:42:18;;;;;;;82.78;38.45;;;;;;;-0.59;89.19;100075.94;7390542;19;20353;-68
2021/12/09 10:44:57;;;;;;;87.38;40.03;;;;;;;-0.59;89.39;100068.22;7397247;19;20130;-67
2021/12/09 10:50:28;;;;;;;83.25;40.72;;;;;;;-0.56;89.35;100057.94;7390508;19;20007;-68
2021/12/09 10:53:03;;;;;;;80.10;40.65;;;;;;;-0.59;89.38;100034.72;7393798;19;20082;-67
2021/12/09 10:55:33;;;;;;;88.53;39.35;;;;;;;-0.51;89.24;100039.97;7390918;19;20018;-67
2021/12/09 10:58:07;;;;;;;85.28;41.05;;;;;;;-0.50;89.17;100042.56;7393644;19;20018;-67
2021/12/09 11:00:37;;;;;;;;;;;;;;;-0.46;89.07;100050.34;7394645;19;20029;-67
2021/12/09 11:03:12;;;;;;;87.97;40.13;;;;;;;-0.45;89.15;100052.94;7393395;19;19922;-66
2021/12/09 11:05:43;;;;;;;79.93;39.45;;;;;;;-0.44;89.20;100033.16;7393211;19;20357;-67
2021/12/09 11:08:20;;;;;;;83.78;39.70;;;;;;;-0.42;89.23;100031.47;7391423;19;20026;-67
2021/12/09 11:10:50;;;;;;;87.60;41.03;;;;;;;-0.40;89.30;100022.06;7391256;19;20021;-67
2021/12/09 11:13:21;;;;;;;87.85;42.67;;;;;;;-0.39;89.39;100019.50;7393581;19;20015;-67
2021/12/09 11:15:55;;;;;;;88.00;43.78;;;;;;;-0.34;89.16;100023.00;7398354;19;20018;-68
2021/12/09 11:18:36;;;;;;;;;;;;;;;-0.31;89.03;100014.44;7398911;19;20044;-68
2021/12/09 11:21:11;;;;;;;81.47;38.45;;;;;;;-0.30;88.89;100013.59;7400424;19;19922;-68
2021/12/09 11:23:50;;;;;;;85.15;40.50;;;;;;;-0.28;88.51;100016.16;7398408;19;20089;-67
2021/12/09 11:26:30;;;;;;;77.13;38.72;;;;;;;-0.30;88.92;100012.69;7400373;19;20022;-67
2021/12/09 11:29:01;;;;;;;81.40;39.35;;;;;;;-0.29;88.92;100005.00;7398217;19;20015;-68
2021/12/09 11:31:33;;;;;;;84.38;39.92;;;;;;;-0.28;88.77;99996.41;7397212;19;20509;-68